createdAt,value
2017-10-09T00:00:28.602Z,7.00
2017-10-09T00:02:56.101Z,5.60
2017-10-09T00:05:23.599Z,6.03
2017-10-09T00:07:51.131Z,6.10
2017-10-09T00:10:18.632Z,5.10
2017-10-09T00:12:46.951Z,6.50
2017-10-09T00:15:14.461Z,5.70
2017-10-09T00:17:42.765Z,5.60
2017-10-09T00:20:10.268Z,6.20
2017-10-09T00:22:37.789Z,6.33
2017-10-09T00:25:05.282Z,5.60
2017-10-09T00:27:32.816Z,6.00
2017-10-09T00:30:00.365Z,6.30
2017-10-09T00:32:27.877Z,6.75
2017-10-09T00:34:56.158Z,5.90
2017-10-09T00:37:24.432Z,6.10
2017-10-09T00:39:52.729Z,6.13
2017-10-09T00:42:20.251Z,6.10
2017-10-09T00:44:47.767Z,6.40
2017-10-09T00:47:15.259Z,7.00
2017-10-09T00:49:42.774Z,6.30
2017-10-09T00:52:10.285Z,6.17
2017-10-09T00:54:38.617Z,6.30
2017-10-09T00:57:06.154Z,5.83
2017-10-09T00:59:33.647Z,6.60
2017-10-09T01:02:01.163Z,6.50
2017-10-09T01:04:29.564Z,7.27
2017-10-09T01:06:57.075Z,5.97
2017-10-09T01:09:25.349Z,6.57
2017-10-09T01:11:52.872Z,6.37
2017-10-09T01:14:20.389Z,9.20
2017-10-09T01:16:48.685Z,6.13
2017-10-09T01:19:16.194Z,7.43
2017-10-09T01:21:43.695Z,6.25
2017-10-09T01:24:11.208Z,6.20
2017-10-09T01:26:38.702Z,6.40
2017-10-09T01:29:06.978Z,6.77
2017-10-09T01:31:35.283Z,7.20
2017-10-09T01:34:02.826Z,7.10
2017-10-09T01:36:30.328Z,6.97
2017-10-09T01:38:57.870Z,7.27
2017-10-09T01:41:25.689Z,7.30
2017-10-09T01:43:53.973Z,7.43
2017-10-09T01:46:22.264Z,6.73
2017-10-09T01:48:49.782Z,7.10
2017-10-09T01:51:17.393Z,7.43
2017-10-09T01:53:44.907Z,6.90
2017-10-09T01:56:12.470Z,6.63
2017-10-09T01:58:39.995Z,7.40
2017-10-09T02:01:08.255Z,8.37
2017-10-09T02:03:36.580Z,7.23
2017-10-09T02:06:04.088Z,9.10
2017-10-09T02:08:32.386Z,7.23
2017-10-09T02:10:59.940Z,7.40
2017-10-09T02:13:28.246Z,7.40
2017-10-09T02:15:55.809Z,8.57
2017-10-09T02:18:23.307Z,7.87
2017-10-09T02:20:50.854Z,9.13
2017-10-09T02:23:18.351Z,8.40
2017-10-09T02:25:46.658Z,7.47
2017-10-09T02:28:14.172Z,8.48
2017-10-09T02:30:42.463Z,7.77
2017-10-09T02:33:10.724Z,8.53
2017-10-09T02:35:38.271Z,6.87
2017-10-09T02:38:05.777Z,8.23
2017-10-09T02:40:33.345Z,9.13
2017-10-09T02:43:00.852Z,7.90
2017-10-09T02:45:28.367Z,7.90
2017-10-09T02:47:55.877Z,7.95
2017-10-09T02:50:23.366Z,8.60
2017-10-09T02:52:50.886Z,8.77
2017-10-09T02:55:19.156Z,8.75
2017-10-09T02:57:46.679Z,8.93
2017-10-09T03:00:14.194Z,9.23
2017-10-09T03:02:41.749Z,9.73
2017-10-09T03:05:10.065Z,9.30
2017-10-09T03:07:37.570Z,9.10
2017-10-09T03:10:05.839Z,9.98
2017-10-09T03:12:33.538Z,9.50
2017-10-09T03:15:01.038Z,9.17
2017-10-09T03:17:28.573Z,8.90
2017-10-09T03:19:56.090Z,8.97
2017-10-09T03:25:41.775Z,9.13
2017-10-09T03:28:14.995Z,9.40
2017-10-09T03:30:43.269Z,9.20
2017-10-09T03:33:11.572Z,8.87
2017-10-09T03:35:39.076Z,9.10
2017-10-09T03:38:06.592Z,9.90
2017-10-09T03:40:34.107Z,9.70
2017-10-09T03:43:01.616Z,10.67
2017-10-09T03:45:29.135Z,10.23
2017-10-09T03:47:57.402Z,10.07
2017-10-09T03:50:25.695Z,11.95
2017-10-09T03:52:53.286Z,9.30
2017-10-09T03:55:20.800Z,10.98
2017-10-09T03:57:49.117Z,10.45
2017-10-09T04:00:16.634Z,11.23
2017-10-09T04:02:44.933Z,11.30
2017-10-09T04:05:12.436Z,10.35
2017-10-09T04:07:39.951Z,10.30
2017-10-09T04:10:07.468Z,10.85
2017-10-09T04:12:34.986Z,11.88
2017-10-09T04:15:02.501Z,11.50
2017-10-09T04:17:30.795Z,11.27
2017-10-09T04:19:58.312Z,10.35
2017-10-09T04:22:25.815Z,11.02
2017-10-09T04:24:53.353Z,10.50
2017-10-09T04:27:21.643Z,10.98
2017-10-09T04:29:49.235Z,10.70
2017-10-09T04:32:16.734Z,11.57
2017-10-09T04:34:45.033Z,10.05
2017-10-09T04:37:12.553Z,11.12
2017-10-09T04:39:40.861Z,10.02
2017-10-09T04:42:08.377Z,11.85
2017-10-09T04:44:35.897Z,12.00
2017-10-09T04:47:03.438Z,11.60
2017-10-09T04:49:30.939Z,11.23
2017-10-09T04:51:58.486Z,11.18
2017-10-09T04:54:25.989Z,13.02
2017-10-09T04:56:54.249Z,11.43
2017-10-09T04:59:21.859Z,11.85
2017-10-09T05:01:49.354Z,12.00
2017-10-09T05:04:16.959Z,13.80
2017-10-09T05:06:44.471Z,13.15
2017-10-09T05:09:11.998Z,11.52
2017-10-09T05:11:39.493Z,12.98
2017-10-09T05:14:07.003Z,11.60
2017-10-09T05:16:34.634Z,11.75
2017-10-09T05:19:02.134Z,12.40
2017-10-09T05:21:29.666Z,12.30
2017-10-09T05:23:57.182Z,11.82
2017-10-09T05:26:24.695Z,12.75
2017-10-09T05:28:52.326Z,11.77
2017-10-09T05:31:19.841Z,11.85
2017-10-09T05:33:48.145Z,12.10
2017-10-09T05:36:15.656Z,12.85
2017-10-09T05:38:43.174Z,12.25
2017-10-09T05:41:10.709Z,12.40
2017-10-09T05:43:38.205Z,12.00
2017-10-09T05:46:05.748Z,11.95
2017-10-09T05:48:33.292Z,11.57
2017-10-09T05:51:00.813Z,11.93
2017-10-09T05:53:28.325Z,11.30
2017-10-09T05:55:56.607Z,10.15
2017-10-09T05:58:24.919Z,10.02
2017-10-09T06:00:52.463Z,10.68
2017-10-09T06:03:19.977Z,9.50
2017-10-09T06:05:48.295Z,10.38
2017-10-09T06:08:15.795Z,9.30
2017-10-09T06:10:43.415Z,9.75
2017-10-09T06:13:10.934Z,8.82
2017-10-09T06:15:39.216Z,9.18
2017-10-09T06:18:07.498Z,9.23
2017-10-09T06:20:35.020Z,8.23
2017-10-09T06:23:02.558Z,8.55
2017-10-09T06:25:30.078Z,8.60
2017-10-09T06:27:57.615Z,7.97
2017-10-09T06:30:25.181Z,6.80
2017-10-09T06:32:52.670Z,8.53
2017-10-09T06:35:20.170Z,7.27
2017-10-09T06:37:48.466Z,6.97
2017-10-09T06:40:16.040Z,6.83
2017-10-09T06:42:43.554Z,7.40
2017-10-09T06:45:11.089Z,6.50
2017-10-09T06:47:38.601Z,6.90
2017-10-09T06:50:06.867Z,6.70
2017-10-09T06:52:34.378Z,6.57
2017-10-09T06:55:01.887Z,5.27
2017-10-09T06:57:29.413Z,5.20
2017-10-09T06:59:56.910Z,4.80
2017-10-09T07:02:24.450Z,5.17
2017-10-09T07:04:51.959Z,5.33
2017-10-09T07:07:19.462Z,4.57
2017-10-09T07:09:46.987Z,5.67
2017-10-09T07:12:14.479Z,4.20
2017-10-09T07:14:42.003Z,4.57
2017-10-09T07:17:09.547Z,4.40
2017-10-09T07:19:37.047Z,4.20
2017-10-09T07:22:04.568Z,5.20
2017-10-09T07:24:32.065Z,5.00
2017-10-09T07:26:59.595Z,4.33
2017-10-09T07:29:27.092Z,4.03
2017-10-09T07:31:55.355Z,5.07
2017-10-09T07:34:22.965Z,5.27
2017-10-09T07:36:50.481Z,4.50
2017-10-09T07:39:18.794Z,4.97
2017-10-09T07:41:46.309Z,4.87
2017-10-09T07:44:13.817Z,4.20
2017-10-09T07:46:41.476Z,4.63
2017-10-09T07:49:08.972Z,4.63
2017-10-09T07:51:36.595Z,3.90
2017-10-09T07:54:04.090Z,4.30
2017-10-09T07:56:32.393Z,4.30
2017-10-09T07:58:59.917Z,3.47
2017-10-09T08:01:27.410Z,4.30
2017-10-09T08:03:54.936Z,3.50
2017-10-09T08:06:22.453Z,11.63
2017-10-09T08:08:49.979Z,15.30
2017-10-09T08:11:17.485Z,8.03
2017-10-09T08:13:45.756Z,6.53
2017-10-09T08:16:13.268Z,3.90
2017-10-09T08:18:40.777Z,6.77
2017-10-09T08:21:09.180Z,4.40
2017-10-09T08:23:36.692Z,7.20
2017-10-09T08:26:04.191Z,8.03
2017-10-09T08:28:31.721Z,4.60
2017-10-09T08:30:59.229Z,3.60
2017-10-09T08:33:26.784Z,10.93
2017-10-09T08:35:54.297Z,5.80
2017-10-09T08:38:22.579Z,4.40
2017-10-09T08:40:50.849Z,3.67
2017-10-09T08:43:18.389Z,3.77
2017-10-09T08:45:45.906Z,4.27
2017-10-09T08:48:14.181Z,3.97
2017-10-09T08:50:42.472Z,4.10
2017-10-09T08:53:09.977Z,4.00
2017-10-09T08:55:38.274Z,4.80
2017-10-09T08:58:05.770Z,3.43
2017-10-09T09:00:33.309Z,4.00
2017-10-09T09:03:00.821Z,3.83
2017-10-09T09:05:29.111Z,3.30
2017-10-09T09:07:57.394Z,3.57
2017-10-09T09:10:24.882Z,3.43
2017-10-09T09:12:52.399Z,3.50
2017-10-09T09:15:20.674Z,4.43
2017-10-09T09:17:48.981Z,3.83
2017-10-09T09:20:16.644Z,3.73
2017-10-09T09:22:44.159Z,7.40
2017-10-09T09:25:11.739Z,2.67
2017-10-09T09:27:40.014Z,2.73
2017-10-09T09:30:08.294Z,2.67
2017-10-09T09:32:36.554Z,2.60
2017-10-09T09:35:04.082Z,2.93
2017-10-09T09:37:31.589Z,2.50
2017-10-09T09:39:59.991Z,2.80
2017-10-09T09:42:27.495Z,2.07
2017-10-09T09:44:55.108Z,4.20
2017-10-09T09:47:22.614Z,2.93
2017-10-09T09:49:50.117Z,2.40
2017-10-09T09:52:17.640Z,2.10
2017-10-09T09:54:45.899Z,3.83
2017-10-09T09:57:13.516Z,2.70
2017-10-09T09:59:41.021Z,2.20
2017-10-09T10:02:08.520Z,3.77
2017-10-09T10:04:36.046Z,2.70
2017-10-09T10:07:03.547Z,2.60
2017-10-09T10:09:31.081Z,2.70
2017-10-09T10:11:59.352Z,2.77
2017-10-09T10:14:27.654Z,3.53
2017-10-09T10:16:55.152Z,3.90
2017-10-09T10:19:22.671Z,3.80
2017-10-09T10:21:50.190Z,3.40
2017-10-09T10:24:17.702Z,3.40
2017-10-09T10:26:45.254Z,3.47
2017-10-09T10:29:12.788Z,3.73
2017-10-09T10:31:41.069Z,3.93
2017-10-09T10:34:08.646Z,3.97
2017-10-09T10:36:36.168Z,4.30
2017-10-09T10:39:04.436Z,4.27
2017-10-09T10:41:32.734Z,5.10
2017-10-09T10:44:00.269Z,4.03
2017-10-09T10:46:27.851Z,3.77
2017-10-09T10:48:55.384Z,4.63
2017-10-09T10:51:22.892Z,5.60
2017-10-09T10:53:50.465Z,5.30
2017-10-09T10:56:17.996Z,5.40
2017-10-09T10:58:46.272Z,4.70
2017-10-09T11:01:14.569Z,4.50
2017-10-09T11:03:42.098Z,4.00
2017-10-09T11:06:09.638Z,5.07
2017-10-09T11:08:37.900Z,4.37
2017-10-09T11:11:06.913Z,3.40
2017-10-09T11:13:35.222Z,5.10
2017-10-09T11:16:02.745Z,3.90
2017-10-09T11:18:31.046Z,3.50
2017-10-09T11:20:58.556Z,3.10
2017-10-09T11:23:26.818Z,4.20
2017-10-09T11:25:54.355Z,3.40
2017-10-09T11:28:21.865Z,3.50
2017-10-09T11:30:49.402Z,4.37
2017-10-09T11:33:17.668Z,3.53
2017-10-09T11:35:45.293Z,4.77
2017-10-09T11:38:12.791Z,3.03
2017-10-09T11:40:41.055Z,3.63
2017-10-09T11:43:09.357Z,4.63
2017-10-09T11:45:36.869Z,4.43
2017-10-09T11:48:04.471Z,3.10
2017-10-09T11:50:31.968Z,3.57
2017-10-09T11:52:59.485Z,4.50
2017-10-09T11:55:27.000Z,3.90
2017-10-09T11:57:54.499Z,4.27
2017-10-09T12:00:22.036Z,3.87
2017-10-09T12:02:49.527Z,4.00
2017-10-09T12:05:17.045Z,4.40
2017-10-09T12:07:44.554Z,3.90
2017-10-09T12:10:12.048Z,4.50
2017-10-09T12:12:39.579Z,3.90
2017-10-09T12:15:07.093Z,4.90
2017-10-09T12:17:34.634Z,5.50
2017-10-09T12:20:02.140Z,3.80
2017-10-09T12:22:29.642Z,3.13
2017-10-09T12:24:57.270Z,3.57
2017-10-09T12:27:24.805Z,3.03
2017-10-09T12:29:52.309Z,2.47
2017-10-09T12:32:21.345Z,2.80
2017-10-09T12:34:48.873Z,2.27
2017-10-09T12:37:16.362Z,2.60
2017-10-09T12:39:44.657Z,2.87
2017-10-09T12:42:12.177Z,3.10
2017-10-09T12:44:39.698Z,3.20
2017-10-09T12:47:07.252Z,2.73
2017-10-09T12:49:34.747Z,3.50
2017-10-09T12:52:02.285Z,3.50
2017-10-09T12:54:29.802Z,3.00
2017-10-09T12:56:57.340Z,2.93
2017-10-09T12:59:25.605Z,3.80
2017-10-09T13:01:53.867Z,3.47
2017-10-09T13:04:21.383Z,4.33
2017-10-09T13:06:49.644Z,5.50
2017-10-09T13:09:18.688Z,5.10
2017-10-09T13:11:46.178Z,5.70
2017-10-09T13:14:13.726Z,6.57
2017-10-09T13:16:41.252Z,7.37
2017-10-09T13:19:08.750Z,8.20
2017-10-09T13:21:36.257Z,7.27
2017-10-09T13:24:04.548Z,9.30
2017-10-09T13:26:32.046Z,9.10
2017-10-09T13:28:59.593Z,8.67
2017-10-09T13:31:27.851Z,8.00
2017-10-09T13:33:56.855Z,7.97
2017-10-09T13:36:25.134Z,8.60
2017-10-09T13:38:53.405Z,8.20
2017-10-09T13:41:21.707Z,8.10
2017-10-09T13:43:49.208Z,8.00
2017-10-09T13:46:16.800Z,8.10
2017-10-09T13:48:45.101Z,7.73
2017-10-09T13:51:12.616Z,7.97
2017-10-09T13:53:40.150Z,8.67
2017-10-09T13:56:07.675Z,8.30
2017-10-09T13:58:35.221Z,9.73
2017-10-09T14:01:03.497Z,8.07
2017-10-09T14:03:31.759Z,8.63
2017-10-09T14:05:59.293Z,8.43
2017-10-09T14:08:27.577Z,9.60
2017-10-09T14:10:55.878Z,9.20
2017-10-09T14:13:23.454Z,10.10
2017-10-09T14:15:50.977Z,7.60
2017-10-09T14:18:19.242Z,7.43
2017-10-09T14:20:46.763Z,9.60
2017-10-09T14:23:14.278Z,8.03
2017-10-09T14:25:42.534Z,9.30
2017-10-09T14:28:10.827Z,8.30
2017-10-09T14:30:39.109Z,9.60
2017-10-09T14:40:29.953Z,10.33
2017-10-09T14:42:58.292Z,10.50
2017-10-09T14:45:25.792Z,9.83
2017-10-09T14:47:54.069Z,12.03
2017-10-09T14:50:22.436Z,9.03
2017-10-09T14:52:50.727Z,9.97
2017-10-09T14:55:18.238Z,9.77
2017-10-09T14:57:45.762Z,9.23
2017-10-09T15:00:13.286Z,11.07
2017-10-09T15:02:41.581Z,10.83
2017-10-09T15:05:09.114Z,10.60
2017-10-09T15:07:36.612Z,10.40
2017-10-09T15:10:04.165Z,10.10
2017-10-09T15:12:31.681Z,11.00
2017-10-09T15:14:59.201Z,11.20
2017-10-09T15:17:26.714Z,9.90
2017-10-09T15:19:54.994Z,9.40
2017-10-09T15:22:23.407Z,10.43
2017-10-09T15:24:50.921Z,9.30
2017-10-09T15:27:18.454Z,11.70
2017-10-09T15:29:47.484Z,12.00
2017-10-09T15:32:15.793Z,10.10
2017-10-09T15:34:43.326Z,12.50
2017-10-09T15:37:10.872Z,12.40
2017-10-09T15:39:38.414Z,14.00
2017-10-09T15:42:06.696Z,12.00
2017-10-09T15:44:34.967Z,11.97
2017-10-09T15:47:03.377Z,13.30
2017-10-09T15:49:30.879Z,13.17
2017-10-09T15:51:58.494Z,16.40
2017-10-09T15:54:26.875Z,15.37
2017-10-09T15:56:55.096Z,15.60
2017-10-09T15:59:22.617Z,16.03
2017-10-09T16:01:50.906Z,16.87
2017-10-09T16:04:18.492Z,17.67
2017-10-09T16:06:46.000Z,18.70
2017-10-09T16:09:13.510Z,18.10
2017-10-09T16:11:41.039Z,19.37
2017-10-09T16:14:09.311Z,19.70
2017-10-09T16:16:37.597Z,19.13
2017-10-09T16:19:05.921Z,20.43
2017-10-09T16:21:33.459Z,19.70
2017-10-09T16:24:00.988Z,21.37
2017-10-09T16:26:29.285Z,21.07
2017-10-09T16:28:56.854Z,21.13
2017-10-09T16:31:24.369Z,24.93
2017-10-09T16:33:52.631Z,23.10
2017-10-09T16:36:20.170Z,23.43
2017-10-09T16:38:48.474Z,23.47
2017-10-09T16:41:16.009Z,24.53
2017-10-09T16:43:43.544Z,24.83
2017-10-09T16:46:11.048Z,26.43
2017-10-09T16:48:38.582Z,26.20
2017-10-09T16:51:06.869Z,28.57
2017-10-09T16:53:34.416Z,25.47
2017-10-09T16:56:01.934Z,26.00
2017-10-09T16:58:30.217Z,26.90
2017-10-09T17:00:58.527Z,28.47
2017-10-09T17:03:26.795Z,26.50
2017-10-09T17:05:55.066Z,26.90
2017-10-09T17:08:22.591Z,27.13
2017-10-09T17:10:50.105Z,26.03
2017-10-09T17:13:18.387Z,25.90
2017-10-09T17:15:45.922Z,24.70
2017-10-09T17:18:13.424Z,24.77
2017-10-09T17:20:41.029Z,25.40
2017-10-09T17:23:08.586Z,25.83
2017-10-09T17:25:36.124Z,26.30
2017-10-09T17:28:04.437Z,23.60
2017-10-09T17:30:31.943Z,23.73
2017-10-09T17:32:59.466Z,22.30
2017-10-09T17:35:26.990Z,24.70
2017-10-09T17:37:55.264Z,43.03
2017-10-09T17:40:23.565Z,28.60
2017-10-09T17:42:51.086Z,26.17
2017-10-09T17:45:18.605Z,24.47
2017-10-09T17:47:46.131Z,25.13
2017-10-09T17:50:13.671Z,29.33
2017-10-09T17:52:41.944Z,28.37
2017-10-09T17:55:10.255Z,27.80
2017-10-09T17:57:37.777Z,30.67
2017-10-09T18:00:05.303Z,27.43
2017-10-09T18:02:32.831Z,34.13
2017-10-09T18:05:00.335Z,36.40
2017-10-09T18:07:28.765Z,27.17
2017-10-09T18:09:56.285Z,27.27
2017-10-09T18:12:23.861Z,45.13
2017-10-09T18:14:51.378Z,35.00
2017-10-09T18:17:18.908Z,35.13
2017-10-09T18:19:46.411Z,33.50
2017-10-09T18:22:14.711Z,30.53
2017-10-09T18:24:42.235Z,34.53
2017-10-09T18:27:09.768Z,34.97
2017-10-09T18:29:37.278Z,31.40
2017-10-09T18:32:04.806Z,27.00
2017-10-09T18:34:32.306Z,26.97
2017-10-09T18:36:59.850Z,23.40
2017-10-09T18:39:28.157Z,25.47
2017-10-09T18:41:55.667Z,24.60
2017-10-09T18:44:23.278Z,26.23
2017-10-09T18:46:50.802Z,26.53
2017-10-09T18:49:18.332Z,25.43
2017-10-09T18:51:45.840Z,26.03
2017-10-09T18:54:13.343Z,26.40
2017-10-09T18:56:41.635Z,26.83
2017-10-09T18:59:09.165Z,25.60
2017-10-09T19:01:37.476Z,27.10
2017-10-09T19:04:04.989Z,27.10
2017-10-09T19:06:32.505Z,26.70
2017-10-09T19:09:00.048Z,28.70
2017-10-09T19:11:27.556Z,28.40
2017-10-09T19:13:55.098Z,29.60
2017-10-09T19:16:22.636Z,27.90
2017-10-09T19:18:50.175Z,29.27
2017-10-09T19:21:17.713Z,30.57
2017-10-09T19:23:46.018Z,27.87
2017-10-09T19:26:13.547Z,30.97
2017-10-09T19:28:41.066Z,30.10
2017-10-09T19:31:08.589Z,29.07
2017-10-09T19:33:36.115Z,32.57
2017-10-09T19:36:03.643Z,31.30
2017-10-09T19:38:31.186Z,31.80
2017-10-09T19:40:59.470Z,34.17
2017-10-09T19:43:27.758Z,34.47
2017-10-09T19:45:55.274Z,31.57
2017-10-09T19:48:22.798Z,38.17
2017-10-09T19:50:50.338Z,39.07
2017-10-09T19:53:17.836Z,38.80
2017-10-09T19:55:45.471Z,39.73
2017-10-09T19:58:12.994Z,43.90
2017-10-09T20:00:41.277Z,40.43
2017-10-09T20:03:09.572Z,46.47
2017-10-09T20:05:37.093Z,44.33
2017-10-09T20:08:04.654Z,48.50
2017-10-09T20:10:32.168Z,44.47
2017-10-09T20:12:59.691Z,45.87
2017-10-09T20:15:27.213Z,48.27
2017-10-09T20:17:55.506Z,46.13
2017-10-09T20:20:23.004Z,46.80
2017-10-09T20:22:50.567Z,49.10
2017-10-09T20:25:18.091Z,48.80
2017-10-09T20:27:46.397Z,45.03
2017-10-09T20:30:14.015Z,44.80
2017-10-09T20:32:41.549Z,43.83
2017-10-09T20:35:09.829Z,43.70
2017-10-09T20:37:37.356Z,42.67
2017-10-09T20:40:04.966Z,38.13
2017-10-09T20:42:32.510Z,40.17
2017-10-09T20:45:00.189Z,37.07
2017-10-09T20:47:27.725Z,41.43
2017-10-09T20:49:55.238Z,37.80
2017-10-09T20:52:22.778Z,41.10
2017-10-09T20:54:50.278Z,42.50
2017-10-09T20:57:18.581Z,40.70
2017-10-09T20:59:46.101Z,42.73
2017-10-09T21:02:14.397Z,44.20
2017-10-09T21:04:41.915Z,40.53
2017-10-09T21:07:09.471Z,40.60
2017-10-09T21:09:36.993Z,39.83
2017-10-09T21:12:04.527Z,40.70
2017-10-09T21:14:32.039Z,37.27
2017-10-09T21:17:00.337Z,37.23
2017-10-09T21:19:27.843Z,38.80
2017-10-09T21:21:56.158Z,39.37
2017-10-09T21:24:23.662Z,37.67
2017-10-09T21:26:51.969Z,35.27
2017-10-09T21:29:20.258Z,36.93
2017-10-09T21:31:47.762Z,38.70
2017-10-09T21:34:15.324Z,34.53
2017-10-09T21:36:42.853Z,33.77
2017-10-09T21:39:10.389Z,36.27
2017-10-09T21:41:37.901Z,37.17
2017-10-09T21:44:05.428Z,35.00
2017-10-09T21:46:32.941Z,33.93
2017-10-09T21:49:01.231Z,38.13
2017-10-09T21:51:28.754Z,37.60
2017-10-09T21:53:56.275Z,34.87
2017-10-09T21:56:23.926Z,32.43
2017-10-09T21:58:51.461Z,34.30
2017-10-09T22:01:18.986Z,35.70
2017-10-09T22:03:46.542Z,32.03
2017-10-09T22:06:14.066Z,33.57
2017-10-09T22:08:41.591Z,32.97
2017-10-09T22:11:09.121Z,31.20
2017-10-09T22:13:36.638Z,36.30
2017-10-09T22:16:04.258Z,35.30
2017-10-09T22:18:31.814Z,36.07
2017-10-09T22:20:59.314Z,35.83
2017-10-09T22:23:26.844Z,35.20
2017-10-09T22:25:54.362Z,35.43
2017-10-09T22:28:22.669Z,34.60
2017-10-09T22:30:50.173Z,37.07
2017-10-09T22:36:08.759Z,35.27
2017-10-09T22:38:37.032Z,35.80
2017-10-09T22:41:05.328Z,32.80
2017-10-09T22:43:32.849Z,33.13
2017-10-09T22:46:01.183Z,31.83
2017-10-09T22:48:28.706Z,34.47
2017-10-09T22:50:57.018Z,33.57
2017-10-09T22:53:24.539Z,34.57
2017-10-09T22:55:52.811Z,33.33
2017-10-09T22:58:21.091Z,31.70
2017-10-09T23:00:48.606Z,32.60
2017-10-09T23:03:16.135Z,33.20
2017-10-09T23:05:44.430Z,35.17
2017-10-09T23:08:12.696Z,35.20
2017-10-09T23:10:41.001Z,34.53
2017-10-09T23:13:08.534Z,35.13
2017-10-09T23:15:36.838Z,37.53
2017-10-09T23:18:05.139Z,38.23
2017-10-09T23:20:32.682Z,38.60
2017-10-09T23:23:00.187Z,38.97
2017-10-09T23:28:18.502Z,42.43
2017-10-09T23:30:46.017Z,43.23
2017-10-09T23:33:13.531Z,42.37
2017-10-09T23:35:41.043Z,41.40
2017-10-09T23:38:08.576Z,41.37
2017-10-09T23:40:36.093Z,40.47
2017-10-09T23:43:04.386Z,38.87
2017-10-09T23:45:31.901Z,39.57
2017-10-09T23:50:50.218Z,43.20
2017-10-09T23:53:17.741Z,44.27
2017-10-09T23:55:46.011Z,44.73
2017-10-09T23:58:14.306Z,46.87
